sensor_id;sensor_type;location;lat;lon;timestamp;P1;durP1;ratioP1;P2;durP2;ratioP2
31095;SDS011;17749;51.962;8.560;2022-11-20T06:01:59;2.80;;;2.58;;
31095;SDS011;17749;51.962;8.560;2022-11-20T06:04:25;2.15;;;1.88;;
31095;SDS011;17749;51.962;8.560;2022-11-20T06:06:52;2.67;;;2.05;;
31095;SDS011;17749;51.962;8.560;2022-11-20T06:09:19;2.33;;;2.05;;
31095;SDS011;17749;51.962;8.560;2022-11-20T06:11:46;2.50;;;1.98;;
31095;SDS011;17749;51.962;8.560;2022-11-20T06:14:13;2.05;;;1.80;;
31095;SDS011;17749;51.962;8.560;2022-11-20T06:16:39;2.30;;;1.80;;
31095;SDS011;17749;51.962;8.560;2022-11-20T06:19:06;2.00;;;1.80;;
31095;SDS011;17749;51.962;8.560;2022-11-20T06:21:33;3.33;;;1.90;;
31095;SDS011;17749;51.962;8.560;2022-11-20T06:24:00;2.33;;;1.83;;
31095;SDS011;17749;51.962;8.560;2022-11-20T06:26:27;2.33;;;1.90;;
31095;SDS011;17749;51.962;8.560;2022-11-20T06:28:54;2.42;;;1.80;;
31095;SDS011;17749;51.962;8.560;2022-11-20T06:31:23;2.75;;;1.98;;
31095;SDS011;17749;51.962;8.560;2022-11-20T06:33:52;2.75;;;1.98;;
31095;SDS011;17749;51.962;8.560;2022-11-20T06:36:19;2.78;;;2.10;;
31095;SDS011;17749;51.962;8.560;2022-11-20T06:38:47;2.35;;;1.80;;
31095;SDS011;17749;51.962;8.560;2022-11-20T06:41:16;2.20;;;1.50;;
31095;SDS011;17749;51.962;8.560;2022-11-20T06:43:44;1.80;;;1.52;;
31095;SDS011;17749;51.962;8.560;2022-11-20T06:46:12;2.67;;;2.10;;
31095;SDS011;17749;51.962;8.560;2022-11-20T06:48:40;2.25;;;1.75;;
31095;SDS011;17749;51.962;8.560;2022-11-20T06:51:07;2.95;;;1.83;;
31095;SDS011;17749;51.962;8.560;2022-11-20T06:53:34;2.35;;;1.80;;
31095;SDS011;17749;51.962;8.560;2022-11-20T06:56:01;1.95;;;1.52;;
31095;SDS011;17749;51.962;8.560;2022-11-20T06:58:29;2.00;;;1.80;;
31095;SDS011;17749;51.962;8.560;2022-11-20T07:01:09;3.70;;;2.30;;
31095;SDS011;17749;51.962;8.560;2022-11-20T07:03:38;3.08;;;1.92;;
31095;SDS011;17749;51.962;8.560;2022-11-20T07:06:05;2.60;;;2.05;;
31095;SDS011;17749;51.962;8.560;2022-11-20T07:08:33;2.88;;;2.30;;
31095;SDS011;17749;51.962;8.560;2022-11-20T07:11:01;3.30;;;2.38;;
31095;SDS011;17749;51.962;8.560;2022-11-20T07:13:30;6.68;;;3.67;;
31095;SDS011;17749;51.962;8.560;2022-11-20T07:16:01;10.10;;;5.13;;
31095;SDS011;17749;51.962;8.560;2022-11-20T07:18:29;5.85;;;4.13;;
31095;SDS011;17749;51.962;8.560;2022-11-20T07:20:59;6.75;;;4.78;;
31095;SDS011;17749;51.962;8.560;2022-11-20T07:23:30;7.63;;;5.35;;
31095;SDS011;17749;51.962;8.560;2022-11-20T07:25:57;8.88;;;5.40;;
31095;SDS011;17749;51.962;8.560;2022-11-20T07:28:24;8.82;;;5.20;;
31095;SDS011;17749;51.962;8.560;2022-11-20T07:30:51;7.40;;;5.05;;
31095;SDS011;17749;51.962;8.560;2022-11-20T07:33:19;6.28;;;4.32;;
31095;SDS011;17749;51.962;8.560;2022-11-20T07:35:46;10.88;;;5.20;;
31095;SDS011;17749;51.962;8.560;2022-11-20T07:38:13;8.73;;;5.25;;
31095;SDS011;17749;51.962;8.560;2022-11-20T07:40:40;7.60;;;5.28;;
31095;SDS011;17749;51.962;8.560;2022-11-20T07:43:06;5.45;;;4.38;;
31095;SDS011;17749;51.962;8.560;2022-11-20T07:45:33;6.60;;;4.65;;
31095;SDS011;17749;51.962;8.560;2022-11-20T07:48:00;6.55;;;4.72;;
31095;SDS011;17749;51.962;8.560;2022-11-20T07:50:27;6.30;;;4.88;;
31095;SDS011;17749;51.962;8.560;2022-11-20T07:53:00;7.75;;;4.88;;
31095;SDS011;17749;51.962;8.560;2022-11-20T07:55:29;13.80;;;5.00;;
31095;SDS011;17749;51.962;8.560;2022-11-20T07:57:55;7.05;;;4.95;;
31095;SDS011;17749;51.962;8.560;2022-11-20T08:00:23;10.07;;;5.13;;
31095;SDS011;17749;51.962;8.560;2022-11-20T08:02:50;7.78;;;4.68;;
31095;SDS011;17749;51.962;8.560;2022-11-20T08:05:17;5.95;;;4.55;;
31095;SDS011;17749;51.962;8.560;2022-11-20T08:07:44;8.90;;;4.90;;
31095;SDS011;17749;51.962;8.560;2022-11-20T08:10:12;11.88;;;5.15;;
31095;SDS011;17749;51.962;8.560;2022-11-20T08:12:47;8.00;;;5.00;;
31095;SDS011;17749;51.962;8.560;2022-11-20T08:15:34;8.82;;;4.47;;
31095;SDS011;17749;51.962;8.560;2022-11-20T08:18:08;6.10;;;4.70;;
31095;SDS011;17749;51.962;8.560;2022-11-20T08:20:57;8.32;;;4.50;;
31095;SDS011;17749;51.962;8.560;2022-11-20T08:23:28;8.25;;;4.30;;
31095;SDS011;17749;51.962;8.560;2022-11-20T08:25:54;5.68;;;3.83;;
31095;SDS011;17749;51.962;8.560;2022-11-20T08:28:21;6.38;;;4.18;;
31095;SDS011;17749;51.962;8.560;2022-11-20T08:30:48;9.63;;;4.57;;
31095;SDS011;17749;51.962;8.560;2022-11-20T08:33:17;5.27;;;3.70;;
31095;SDS011;17749;51.962;8.560;2022-11-20T08:35:44;10.75;;;4.40;;
31095;SDS011;17749;51.962;8.560;2022-11-20T08:38:11;7.30;;;4.10;;
31095;SDS011;17749;51.962;8.560;2022-11-20T08:40:38;6.22;;;3.78;;
31095;SDS011;17749;51.962;8.560;2022-11-20T08:43:04;6.25;;;3.95;;
31095;SDS011;17749;51.962;8.560;2022-11-20T08:45:31;7.22;;;3.80;;
31095;SDS011;17749;51.962;8.560;2022-11-20T08:48:01;5.53;;;3.72;;
31095;SDS011;17749;51.962;8.560;2022-11-20T08:50:29;5.97;;;3.78;;
31095;SDS011;17749;51.962;8.560;2022-11-20T08:53:04;7.95;;;7.15;;
31095;SDS011;17749;51.962;8.560;2022-11-20T08:55:31;12.30;;;7.10;;
31095;SDS011;17749;51.962;8.560;2022-11-20T08:57:58;10.10;;;5.85;;
31095;SDS011;17749;51.962;8.560;2022-11-20T09:00:29;6.97;;;4.68;;
31095;SDS011;17749;51.962;8.560;2022-11-20T09:02:55;19.50;;;5.18;;
31095;SDS011;17749;51.962;8.560;2022-11-20T09:05:22;15.82;;;5.03;;
31095;SDS011;17749;51.962;8.560;2022-11-20T09:07:49;10.23;;;4.50;;
31095;SDS011;17749;51.962;8.560;2022-11-20T09:10:15;8.20;;;4.43;;
31095;SDS011;17749;51.962;8.560;2022-11-20T09:12:51;6.15;;;4.28;;
31095;SDS011;17749;51.962;8.560;2022-11-20T09:15:19;7.30;;;4.15;;
31095;SDS011;17749;51.962;8.560;2022-11-20T09:18:04;5.85;;;3.83;;
31095;SDS011;17749;51.962;8.560;2022-11-20T09:20:31;6.30;;;3.92;;
31095;SDS011;17749;51.962;8.560;2022-11-20T09:22:58;8.43;;;4.03;;
31095;SDS011;17749;51.962;8.560;2022-11-20T09:25:25;8.00;;;3.50;;
31095;SDS011;17749;51.962;8.560;2022-11-20T09:27:58;6.45;;;3.47;;
31095;SDS011;17749;51.962;8.560;2022-11-20T09:30:25;5.32;;;4.00;;
31095;SDS011;17749;51.962;8.560;2022-11-20T09:32:52;5.75;;;3.80;;
31095;SDS011;17749;51.962;8.560;2022-11-20T09:35:20;5.47;;;3.60;;
31095;SDS011;17749;51.962;8.560;2022-11-20T09:37:46;8.65;;;3.67;;
31095;SDS011;17749;51.962;8.560;2022-11-20T09:40:20;7.03;;;3.28;;
31095;SDS011;17749;51.962;8.560;2022-11-20T09:45:22;4.97;;;3.58;;
31095;SDS011;17749;51.962;8.560;2022-11-20T09:56:25;5.25;;;3.42;;
31095;SDS011;17749;51.962;8.560;2022-11-20T09:58:53;5.82;;;3.45;;
31095;SDS011;17749;51.962;8.560;2022-11-20T10:01:26;3.75;;;3.10;;
31095;SDS011;17749;51.962;8.560;2022-11-20T10:03:58;4.40;;;3.05;;
31095;SDS011;17749;51.962;8.560;2022-11-20T10:06:31;5.25;;;3.30;;
31095;SDS011;17749;51.962;8.560;2022-11-20T10:11:45;6.90;;;3.40;;
31095;SDS011;17749;51.962;8.560;2022-11-20T10:20:23;4.05;;;3.10;;
31095;SDS011;17749;51.962;8.560;2022-11-20T10:26:50;5.68;;;5.10;;
31095;SDS011;17749;51.962;8.560;2022-11-20T10:29:32;7.30;;;4.30;;
31095;SDS011;17749;51.962;8.560;2022-11-20T10:32:02;8.13;;;3.42;;
31095;SDS011;17749;51.962;8.560;2022-11-20T10:34:47;6.13;;;3.50;;
31095;SDS011;17749;51.962;8.560;2022-11-20T10:37:29;6.50;;;3.45;;
31095;SDS011;17749;51.962;8.560;2022-11-20T10:42:55;4.05;;;2.83;;
31095;SDS011;17749;51.962;8.560;2022-11-20T10:50:31;3.65;;;2.67;;
31095;SDS011;17749;51.962;8.560;2022-11-20T10:53:03;3.20;;;2.78;;
31095;SDS011;17749;51.962;8.560;2022-11-20T10:58:25;5.75;;;2.88;;
31095;SDS011;17749;51.962;8.560;2022-11-20T11:01:04;5.97;;;3.13;;
31095;SDS011;17749;51.962;8.560;2022-11-20T11:03:41;6.35;;;2.72;;
31095;SDS011;17749;51.962;8.560;2022-11-20T11:06:54;6.63;;;2.58;;
31095;SDS011;17749;51.962;8.560;2022-11-20T11:09:06;4.10;;;2.88;;
31095;SDS011;17749;51.962;8.560;2022-11-20T11:11:38;5.07;;;2.70;;
31095;SDS011;17749;51.962;8.560;2022-11-20T11:14:06;3.70;;;2.75;;
31095;SDS011;17749;51.962;8.560;2022-11-20T11:16:34;8.77;;;3.50;;
31095;SDS011;17749;51.962;8.560;2022-11-20T11:19:10;16.27;;;3.90;;
31095;SDS011;17749;51.962;8.560;2022-11-20T11:21:38;9.35;;;3.72;;
31095;SDS011;17749;51.962;8.560;2022-11-20T11:24:22;9.32;;;3.25;;
31095;SDS011;17749;51.962;8.560;2022-11-20T11:27:12;4.75;;;3.03;;
31095;SDS011;17749;51.962;8.560;2022-11-20T11:29:45;4.65;;;2.53;;
31095;SDS011;17749;51.962;8.560;2022-11-20T11:32:13;14.23;;;3.35;;
31095;SDS011;17749;51.962;8.560;2022-11-20T11:34:41;7.13;;;2.75;;
31095;SDS011;17749;51.962;8.560;2022-11-20T11:37:17;3.97;;;2.88;;
31095;SDS011;17749;51.962;8.560;2022-11-20T11:39:46;8.77;;;3.53;;
31095;SDS011;17749;51.962;8.560;2022-11-20T11:42:29;5.32;;;3.10;;
31095;SDS011;17749;51.962;8.560;2022-11-20T11:44:59;5.82;;;2.72;;
31095;SDS011;17749;51.962;8.560;2022-11-20T11:47:33;6.70;;;3.08;;
31095;SDS011;17749;51.962;8.560;2022-11-20T11:50:37;4.50;;;2.70;;
31095;SDS011;17749;51.962;8.560;2022-11-20T11:53:13;6.38;;;3.00;;
31095;SDS011;17749;51.962;8.560;2022-11-20T12:04:05;3.45;;;2.95;;
31095;SDS011;17749;51.962;8.560;2022-11-20T12:06:47;3.67;;;3.00;;
31095;SDS011;17749;51.962;8.560;2022-11-20T12:09:20;6.60;;;3.00;;
31095;SDS011;17749;51.962;8.560;2022-11-20T12:11:55;6.50;;;3.05;;
31095;SDS011;17749;51.962;8.560;2022-11-20T12:14:33;8.32;;;3.47;;
31095;SDS011;17749;51.962;8.560;2022-11-20T12:17:02;6.18;;;2.80;;
31095;SDS011;17749;51.962;8.560;2022-11-20T12:19:30;3.92;;;2.78;;
31095;SDS011;17749;51.962;8.560;2022-11-20T12:30:22;5.22;;;2.92;;
31095;SDS011;17749;51.962;8.560;2022-11-20T12:44:19;4.13;;;2.67;;
31095;SDS011;17749;51.962;8.560;2022-11-20T12:50:48;3.90;;;3.15;;
31095;SDS011;17749;51.962;8.560;2022-11-20T12:56:52;4.03;;;2.83;;
31095;SDS011;17749;51.962;8.560;2022-11-20T12:59:49;4.97;;;3.25;;
31095;SDS011;17749;51.962;8.560;2022-11-20T13:08:35;5.18;;;2.83;;
31095;SDS011;17749;51.962;8.560;2022-11-20T13:11:08;5.00;;;2.83;;
31095;SDS011;17749;51.962;8.560;2022-11-20T13:19:31;4.18;;;2.55;;
31095;SDS011;17749;51.962;8.560;2022-11-20T13:21:58;6.45;;;2.75;;
31095;SDS011;17749;51.962;8.560;2022-11-20T13:24:29;4.38;;;3.00;;
31095;SDS011;17749;51.962;8.560;2022-11-20T13:29:40;8.00;;;3.17;;
31095;SDS011;17749;51.962;8.560;2022-11-20T13:32:17;7.05;;;2.80;;
31095;SDS011;17749;51.962;8.560;2022-11-20T13:34:53;4.18;;;2.72;;
31095;SDS011;17749;51.962;8.560;2022-11-20T13:37:29;5.10;;;2.65;;
31095;SDS011;17749;51.962;8.560;2022-11-20T13:40:51;4.60;;;2.90;;
31095;SDS011;17749;51.962;8.560;2022-11-20T13:45:22;4.35;;;2.95;;
31095;SDS011;17749;51.962;8.560;2022-11-20T13:47:49;7.93;;;2.57;;
31095;SDS011;17749;51.962;8.560;2022-11-20T13:50:17;3.85;;;2.70;;
31095;SDS011;17749;51.962;8.560;2022-11-20T13:55:26;6.00;;;2.90;;
31095;SDS011;17749;51.962;8.560;2022-11-20T14:00:48;3.65;;;2.45;;
31095;SDS011;17749;51.962;8.560;2022-11-20T14:03:22;3.38;;;2.53;;
31095;SDS011;17749;51.962;8.560;2022-11-20T14:06:23;6.10;;;2.90;;
31095;SDS011;17749;51.962;8.560;2022-11-20T14:08:56;6.15;;;2.83;;
31095;SDS011;17749;51.962;8.560;2022-11-20T14:11:25;5.43;;;3.00;;
31095;SDS011;17749;51.962;8.560;2022-11-20T14:13:55;6.43;;;3.17;;
31095;SDS011;17749;51.962;8.560;2022-11-20T14:16:23;6.32;;;2.92;;
31095;SDS011;17749;51.962;8.560;2022-11-20T14:18:52;5.43;;;3.45;;
31095;SDS011;17749;51.962;8.560;2022-11-20T14:21:23;4.25;;;2.90;;
31095;SDS011;17749;51.962;8.560;2022-11-20T14:24:02;3.55;;;2.33;;
31095;SDS011;17749;51.962;8.560;2022-11-20T14:26:33;4.78;;;2.20;;
31095;SDS011;17749;51.962;8.560;2022-11-20T14:29:00;4.00;;;2.80;;
31095;SDS011;17749;51.962;8.560;2022-11-20T14:31:27;4.57;;;2.58;;
31095;SDS011;17749;51.962;8.560;2022-11-20T14:33:54;6.80;;;2.95;;
31095;SDS011;17749;51.962;8.560;2022-11-20T14:36:22;6.97;;;2.70;;
31095;SDS011;17749;51.962;8.560;2022-11-20T14:38:51;7.65;;;3.30;;
31095;SDS011;17749;51.962;8.560;2022-11-20T14:41:20;4.32;;;3.05;;
31095;SDS011;17749;51.962;8.560;2022-11-20T14:43:58;4.70;;;3.15;;
31095;SDS011;17749;51.962;8.560;2022-11-20T14:46:26;7.65;;;2.65;;
31095;SDS011;17749;51.962;8.560;2022-11-20T14:48:55;3.33;;;2.67;;
31095;SDS011;17749;51.962;8.560;2022-11-20T14:51:36;4.28;;;2.85;;
31095;SDS011;17749;51.962;8.560;2022-11-20T14:54:14;6.75;;;2.70;;
31095;SDS011;17749;51.962;8.560;2022-11-20T14:56:56;4.70;;;2.78;;
31095;SDS011;17749;51.962;8.560;2022-11-20T14:59:28;6.65;;;3.20;;
31095;SDS011;17749;51.962;8.560;2022-11-20T15:02:04;5.43;;;3.10;;
31095;SDS011;17749;51.962;8.560;2022-11-20T15:04:47;4.22;;;3.10;;
31095;SDS011;17749;51.962;8.560;2022-11-20T15:07:25;5.38;;;3.17;;
31095;SDS011;17749;51.962;8.560;2022-11-20T15:10:05;6.38;;;2.47;;
31095;SDS011;17749;51.962;8.560;2022-11-20T15:12:46;6.65;;;3.42;;
31095;SDS011;17749;51.962;8.560;2022-11-20T15:15:15;3.80;;;2.90;;
31095;SDS011;17749;51.962;8.560;2022-11-20T15:17:47;5.05;;;3.22;;
31095;SDS011;17749;51.962;8.560;2022-11-20T15:20:14;4.55;;;3.00;;
31095;SDS011;17749;51.962;8.560;2022-11-20T15:27:41;5.05;;;3.00;;
31095;SDS011;17749;51.962;8.560;2022-11-20T15:30:13;5.32;;;3.00;;
31095;SDS011;17749;51.962;8.560;2022-11-20T15:32:42;5.15;;;3.10;;
31095;SDS011;17749;51.962;8.560;2022-11-20T15:35:10;4.43;;;3.22;;
31095;SDS011;17749;51.962;8.560;2022-11-20T15:37:37;4.07;;;2.88;;
31095;SDS011;17749;51.962;8.560;2022-11-20T15:40:05;6.97;;;3.33;;
31095;SDS011;17749;51.962;8.560;2022-11-20T15:42:33;4.23;;;3.03;;
31095;SDS011;17749;51.962;8.560;2022-11-20T15:45:00;4.15;;;2.78;;
31095;SDS011;17749;51.962;8.560;2022-11-20T15:47:34;4.95;;;3.13;;
31095;SDS011;17749;51.962;8.560;2022-11-20T15:50:02;6.68;;;3.22;;
31095;SDS011;17749;51.962;8.560;2022-11-20T15:52:29;4.78;;;3.20;;
31095;SDS011;17749;51.962;8.560;2022-11-20T15:55:10;7.43;;;3.30;;
31095;SDS011;17749;51.962;8.560;2022-11-20T15:57:37;10.82;;;3.53;;
31095;SDS011;17749;51.962;8.560;2022-11-20T16:00:04;12.45;;;3.47;;
31095;SDS011;17749;51.962;8.560;2022-11-20T16:02:36;42.78;;;25.55;;
31095;SDS011;17749;51.962;8.560;2022-11-20T16:05:03;112.72;;;65.15;;
31095;SDS011;17749;51.962;8.560;2022-11-20T16:07:30;81.80;;;44.58;;
31095;SDS011;17749;51.962;8.560;2022-11-20T16:09:57;59.75;;;31.77;;
31095;SDS011;17749;51.962;8.560;2022-11-20T16:12:24;54.72;;;28.33;;
31095;SDS011;17749;51.962;8.560;2022-11-20T16:15:23;38.38;;;24.35;;
31095;SDS011;17749;51.962;8.560;2022-11-20T16:18:22;39.83;;;21.67;;
31095;SDS011;17749;51.962;8.560;2022-11-20T16:20:50;37.45;;;21.33;;
31095;SDS011;17749;51.962;8.560;2022-11-20T16:23:21;36.10;;;20.63;;
31095;SDS011;17749;51.962;8.560;2022-11-20T16:25:48;37.70;;;21.85;;
31095;SDS011;17749;51.962;8.560;2022-11-20T16:28:16;45.78;;;21.38;;
31095;SDS011;17749;51.962;8.560;2022-11-20T16:30:45;41.37;;;20.77;;
31095;SDS011;17749;51.962;8.560;2022-11-20T16:33:13;38.03;;;19.92;;
31095;SDS011;17749;51.962;8.560;2022-11-20T16:35:42;33.17;;;20.13;;
31095;SDS011;17749;51.962;8.560;2022-11-20T16:38:09;32.60;;;18.58;;
31095;SDS011;17749;51.962;8.560;2022-11-20T16:40:36;30.95;;;17.90;;
31095;SDS011;17749;51.962;8.560;2022-11-20T16:43:07;33.70;;;18.10;;
31095;SDS011;17749;51.962;8.560;2022-11-20T16:45:42;31.30;;;17.58;;
31095;SDS011;17749;51.962;8.560;2022-11-20T16:48:14;26.80;;;15.98;;
31095;SDS011;17749;51.962;8.560;2022-11-20T16:50:44;28.38;;;15.73;;
31095;SDS011;17749;51.962;8.560;2022-11-20T16:53:14;24.40;;;14.77;;
31095;SDS011;17749;51.962;8.560;2022-11-20T16:55:40;25.27;;;14.68;;
31095;SDS011;17749;51.962;8.560;2022-11-20T16:58:07;22.92;;;13.38;;
31095;SDS011;17749;51.962;8.560;2022-11-20T17:00:37;17.48;;;11.93;;
31095;SDS011;17749;51.962;8.560;2022-11-20T17:03:05;20.38;;;12.82;;
31095;SDS011;17749;51.962;8.560;2022-11-20T17:05:32;19.67;;;13.38;;
31095;SDS011;17749;51.962;8.560;2022-11-20T17:08:00;22.75;;;12.80;;
31095;SDS011;17749;51.962;8.560;2022-11-20T17:10:27;21.40;;;12.50;;
31095;SDS011;17749;51.962;8.560;2022-11-20T17:12:54;21.65;;;12.48;;
31095;SDS011;17749;51.962;8.560;2022-11-20T17:15:21;17.48;;;11.25;;
31095;SDS011;17749;51.962;8.560;2022-11-20T17:17:47;15.57;;;10.48;;
31095;SDS011;17749;51.962;8.560;2022-11-20T17:20:14;16.55;;;10.93;;
31095;SDS011;17749;51.962;8.560;2022-11-20T17:22:41;18.10;;;10.68;;
31095;SDS011;17749;51.962;8.560;2022-11-20T17:25:07;19.80;;;10.65;;
31095;SDS011;17749;51.962;8.560;2022-11-20T17:27:34;19.25;;;10.20;;
31095;SDS011;17749;51.962;8.560;2022-11-20T17:30:01;18.38;;;12.00;;
31095;SDS011;17749;51.962;8.560;2022-11-20T17:32:28;18.23;;;11.52;;
31095;SDS011;17749;51.962;8.560;2022-11-20T17:34:55;20.38;;;11.40;;
31095;SDS011;17749;51.962;8.560;2022-11-20T17:37:21;20.17;;;11.65;;
31095;SDS011;17749;51.962;8.560;2022-11-20T17:39:48;20.75;;;12.05;;
31095;SDS011;17749;51.962;8.560;2022-11-20T17:42:15;20.27;;;10.38;;
31095;SDS011;17749;51.962;8.560;2022-11-20T17:44:55;17.63;;;10.88;;
31095;SDS011;17749;51.962;8.560;2022-11-20T17:47:24;19.83;;;11.43;;
31095;SDS011;17749;51.962;8.560;2022-11-20T17:49:51;19.23;;;11.75;;
31095;SDS011;17749;51.962;8.560;2022-11-20T17:52:19;14.75;;;10.18;;
31095;SDS011;17749;51.962;8.560;2022-11-20T17:54:45;15.57;;;10.07;;
31095;SDS011;17749;51.962;8.560;2022-11-20T17:57:12;19.73;;;10.38;;
31095;SDS011;17749;51.962;8.560;2022-11-20T17:59:57;19.45;;;10.00;;
31095;SDS011;17749;51.962;8.560;2022-11-20T18:02:24;18.38;;;9.57;;
31095;SDS011;17749;51.962;8.560;2022-11-20T18:04:50;14.75;;;9.55;;
31095;SDS011;17749;51.962;8.560;2022-11-20T18:07:17;16.40;;;10.20;;
31095;SDS011;17749;51.962;8.560;2022-11-20T18:09:43;16.45;;;9.50;;
31095;SDS011;17749;51.962;8.560;2022-11-20T18:12:10;15.98;;;9.68;;
31095;SDS011;17749;51.962;8.560;2022-11-20T18:14:37;17.33;;;10.18;;
31095;SDS011;17749;51.962;8.560;2022-11-20T18:17:07;15.85;;;9.20;;
31095;SDS011;17749;51.962;8.560;2022-11-20T18:19:37;14.02;;;8.70;;
31095;SDS011;17749;51.962;8.560;2022-11-20T18:22:28;17.15;;;9.73;;
31095;SDS011;17749;51.962;8.560;2022-11-20T18:24:55;15.40;;;8.70;;
31095;SDS011;17749;51.962;8.560;2022-11-20T18:27:21;12.48;;;8.85;;
31095;SDS011;17749;51.962;8.560;2022-11-20T18:29:49;18.83;;;9.40;;
31095;SDS011;17749;51.962;8.560;2022-11-20T18:32:18;13.00;;;7.83;;
31095;SDS011;17749;51.962;8.560;2022-11-20T18:34:46;13.82;;;9.02;;
31095;SDS011;17749;51.962;8.560;2022-11-20T18:37:13;11.75;;;8.23;;
31095;SDS011;17749;51.962;8.560;2022-11-20T18:39:42;14.40;;;8.52;;
31095;SDS011;17749;51.962;8.560;2022-11-20T18:42:10;13.57;;;8.38;;
31095;SDS011;17749;51.962;8.560;2022-11-20T18:44:56;13.00;;;7.75;;
31095;SDS011;17749;51.962;8.560;2022-11-20T18:47:29;13.93;;;8.23;;
31095;SDS011;17749;51.962;8.560;2022-11-20T18:49:58;14.85;;;8.43;;
